EGGDGCTS

Guest
Details From EGGD - Bristol Lulsgate
To GCTS - Tenerife Sur
Flight Number -
Tags Generated
Created
Modified
Stats Distance 1,535 nm / 2,844 km
Max Altitude 0 ft / 0 m
Waypoints 3
Social Downloads 2
Likes 0
Share VATSIM

Download

Looking for another format? Having issues loading an existing format? Contact us
Advertisement - Login to hide

Notes

Generated

Route

EGGD TES GCTS

ID Type Via Altitude Latitude Longitude Leg Dist Tot Dist Heading (true) Name
O EGGD APT - 0 ft / 0 m 51.38211˚ -2.73350˚ - 0 nm - -
TES NDB - 0 ft / 0 m 28.05472˚ -16.56278˚ 1533 nm 1533 nm 209° / 200° TENERIFE SUR NDB
O GCTS APT - 0 ft / 0 m 28.03920˚ -16.58764˚ 1 nm 1535 nm 235° / 235° -

Altitude Profile

Advertisement - Login to hide

Weather


0- 5 10 15 20 25 30 35+ Temperature / ° C

Clouds and Precipitation
Forecast for 2018-05-23 18:00 UTC. Updated 2 hours ago

Ground ~20,000 ft ~40,000 ft Winds

EGGD

Details ICAO EGGD (BRS)
Name Bristol International
Region United Kingdom
Timezone Europe/London (UTC+1.0)
Stats Elevation 622 ft / 190 m (AMSL)
Location 51.382658° -2.718918°
Runways 1
Magnetic Variation 1.284° W

METAR

EGGD 231920Z AUTO 05010KT 9999 NCD 17/10 Q1022

Decode

TAF

TAF EGGD 231705Z 2318/2418 04010KT 9999 SCT030 PROB30 TEMPO 2320/2409 7000 SHRA BECMG 2400/2403 BKN010 TEMPO 2403/2408 BKN006 BECMG 2409/2412 SCT018 TEMPO 2409/2418 6000 SHRA PROB30 TEMPO 2412/2418 3000 +SHRA +TSRA BKN012 BKN030CB

Decode

Departure Runways

ID Width Length Bearing (true) Bearing (mag) Surface Threshold Offset Overrun Length
09 148 ft / 45 m 6,655 ft / 2,029 m 86.42° 87.70° Asphalt 0 ft / 0 m 0 ft / 0 m
27 148 ft / 45 m 6,655 ft / 2,029 m 266.44° 267.72° Asphalt 499 ft / 152 m 0 ft / 0 m

GCTS

Details ICAO GCTS (TFS)
Name Tenerife Sur
Region Canary Islands
Timezone Atlantic/Canary (UTC+1.0)
Stats Elevation 209 ft / 64 m (AMSL)
Location 28.044475° -16.572488°
Runways 1
Magnetic Variation 5.066° W

METAR

GCTS 231900Z 15006KT 9999 FEW022 BKN058 19/14 Q1018 NOSIG

Decode

TAF

TAF GCTS 231400Z 2315/2415 VRB05KT 9999 SCT035 TX26/2414Z TN18/2405Z TEMPO 2315/2318 12010KT

Decode

Destination Runways

ID Width Length Bearing (true) Bearing (mag) Surface Threshold Offset Overrun Length
08 148 ft / 45 m 10,489 ft / 3,197 m 68.47° 73.54° Asphalt 0 ft / 0 m 0 ft / 0 m
26 148 ft / 45 m 10,489 ft / 3,197 m 248.49° 253.56° Asphalt 0 ft / 0 m 0 ft / 0 m

Approach Navaids

Runway Type Ident Frequency Range Bearing (true) Bearing (mag) Slope Elevation
08 Localiser TRS 109.70 MHz 18 nm / 33 km 68.49° 73.56° - 187 ft / 57 m (AMSL)
08 Glidescope TRS 109.70 MHz 10 nm / 19 km 68.48° 73.55° 3.00° 209 ft / 64 m (AMSL)
26 Localiser ISUR 110.90 MHz 18 nm / 33 km 248.52° 253.58° - 209 ft / 64 m (AMSL)
26 Glidescope ISUR 110.90 MHz 10 nm / 19 km 248.48° 253.55° 3.00° 236 ft / 72 m (AMSL)
26 DME ISUR 110.90 MHz 18 nm / 33 km - - - 236 ft / 72 m (AMSL)

Popular Alternatives